Time;durP1;ratioP1;P1;durP2;ratioP2;P2;SDS_P1;SDS_P2;PMS_P1;PMS_P2;Temp;Humidity;BMP_temperature;BMP_pressure;BME280_temperature;BME280_humidity;BME280_pressure;Samples;Min_cycle;Max_cycle;Signal;HPM_P1;HPM_P2
2023/01/15 00:02:05;;;;;;;6.47;5.38;;;;;;;;;;5053072;28;20032;-58
2023/01/15 00:04:31;;;;;;;7.10;5.07;;;;;;;;;;5053215;28;20508;-59
2023/01/15 00:06:56;;;;;;;6.57;4.90;;;;;;;;;;5052910;28;20055;-59
2023/01/15 00:09:22;;;;;;;6.47;5.20;;;;;;;;;;5053134;28;20034;-59
2023/01/15 00:11:47;;;;;;;6.38;5.10;;;;;;;;;;5052804;28;20105;-59
2023/01/15 00:14:13;;;;;;;7.93;5.60;;;;;;;;;;5052880;28;20112;-59
2023/01/15 00:16:41;;;;;;;6.90;5.20;;;;;;;;;;5034985;28;20025;-59
2023/01/15 00:19:10;;;;;;;6.05;5.07;;;;;;;;;;5052843;28;20029;-59
2023/01/15 00:21:36;;;;;;;7.43;5.37;;;;;;;;;;5052937;28;20024;-59
2023/01/15 00:29:31;;;;;;;6.10;5.00;;;;;;;;;;5052711;28;20453;-59
2023/01/15 00:32:01;;;;;;;6.03;4.75;;;;;;;;;;5052627;28;20542;-59
2023/01/15 00:34:27;;;;;;;;;;;;;;;;;;5053034;28;20128;-59
2023/01/15 00:36:53;;;;;;;5.82;4.72;;;;;;;;;;5052545;28;19952;-59
2023/01/15 00:39:19;;;;;;;7.70;5.25;;;;;;;;;;5052519;28;20021;-59
2023/01/15 00:41:45;;;;;;;6.43;5.10;;;;;;;;;;5051975;28;20031;-59
2023/01/15 00:44:10;;;;;;;6.05;4.95;;;;;;;;;;5052579;28;20021;-59
2023/01/15 00:46:36;;;;;;;7.10;5.07;;;;;;;;;;5052698;28;20018;-59
2023/01/15 00:49:03;;;;;;;5.70;4.97;;;;;;;;;;5052330;28;20021;-59
2023/01/15 00:51:28;;;;;;;5.82;4.78;;;;;;;;;;5052302;28;20025;-59
2023/01/15 00:53:54;;;;;;;6.18;4.88;;;;;;;;;;5052559;28;20021;-59
2023/01/15 00:56:19;;;;;;;6.63;5.00;;;;;;;;;;5052330;28;20510;-59
2023/01/15 00:58:46;;;;;;;6.88;5.07;;;;;;;;;;5052269;28;20027;-59
2023/01/15 01:01:12;;;;;;;5.35;4.80;;;;;;;;;;5052269;28;20017;-59
2023/01/15 01:03:38;;;;;;;7.07;4.80;;;;;;;;;;5052213;28;20025;-59
2023/01/15 01:06:04;;;;;;;5.90;4.80;;;;;;;;;;5052086;28;20040;-59
2023/01/15 01:08:30;;;;;;;7.25;5.13;;;;;;;;;;5052191;28;20031;-59
2023/01/15 01:11:08;;;;;;;5.63;4.82;;;;;;;;;;5052441;28;20104;-59
2023/01/15 01:13:34;;;;;;;5.82;4.53;;;;;;;;;;5052143;28;20021;-59
2023/01/15 01:16:00;;;;;;;6.47;5.28;;;;;;;;;;5052142;28;20033;-59
2023/01/15 01:18:25;;;;;;;7.50;5.47;;;;;;;;;;5052116;28;20151;-59
2023/01/15 01:20:51;;;;;;;6.85;5.28;;;;;;;;;;5052035;28;20427;-60
2023/01/15 01:23:17;;;;;;;6.35;4.93;;;;;;;;;;5052051;28;20056;-59
2023/01/15 01:25:43;;;;;;;5.40;4.78;;;;;;;;;;5051939;28;20060;-59
2023/01/15 01:28:08;;;;;;;6.15;4.90;;;;;;;;;;5051980;28;20032;-62
2023/01/15 01:30:34;;;;;;;6.15;4.72;;;;;;;;;;5052208;28;20400;-59
2023/01/15 01:32:59;;;;;;;6.13;4.80;;;;;;;;;;5034444;28;20503;-59
2023/01/15 01:35:25;;;;;;;6.53;4.72;;;;;;;;;;5051678;28;20427;-64
2023/01/15 01:37:51;;;;;;;6.30;5.05;;;;;;;;;;5051813;28;20029;-60
2023/01/15 01:40:17;;;;;;;5.80;4.72;;;;;;;;;;5051819;28;20071;-59
2023/01/15 01:42:44;;;;;;;6.25;4.68;;;;;;;;;;5051789;28;20477;-60
2023/01/15 01:45:32;;;;;;;5.90;4.85;;;;;;;;;;5051648;28;20043;-59
2023/01/15 01:48:02;;;;;;;5.57;4.60;;;;;;;;;;5051999;28;20025;-60
2023/01/15 01:50:30;;;;;;;5.78;4.50;;;;;;;;;;5052046;28;20119;-59
2023/01/15 01:53:13;;;;;;;5.65;4.82;;;;;;;;;;5052901;28;20032;-58
2023/01/15 01:55:39;;;;;;;5.88;4.93;;;;;;;;;;5055506;28;20053;-59
2023/01/15 01:58:08;;;;;;;6.30;4.60;;;;;;;;;;5037409;28;20043;-59
2023/01/15 02:00:39;;;;;;;5.22;4.35;;;;;;;;;;5055316;28;20052;-59
2023/01/15 02:03:07;;;;;;;5.70;4.80;;;;;;;;;;5055535;28;20537;-61
2023/01/15 02:05:37;;;;;;;6.25;4.65;;;;;;;;;;5055195;28;20603;-59
2023/01/15 02:08:04;;;;;;;5.57;4.83;;;;;;;;;;5055513;28;20031;-59
2023/01/15 02:10:29;;;;;;;6.32;4.90;;;;;;;;;;5055136;28;20035;-60
2023/01/15 02:13:10;;;;;;;6.90;4.90;;;;;;;;;;5055072;28;20116;-60
2023/01/15 02:15:43;;;;;;;6.18;4.65;;;;;;;;;;5055315;28;20070;-59
2023/01/15 02:18:15;;;;;;;6.28;4.63;;;;;;;;;;5055125;28;20021;-59
2023/01/15 02:20:55;;;;;;;6.80;4.75;;;;;;;;;;5055248;28;20032;-60
2023/01/15 02:23:47;;;;;;;6.00;4.57;;;;;;;;;;5055246;28;20029;-59
2023/01/15 02:26:31;;;;;;;5.38;4.50;;;;;;;;;;5054262;28;20076;-60
2023/01/15 02:28:58;;;;;;;5.40;4.50;;;;;;;;;;5036675;28;20068;-60
2023/01/15 02:31:29;;;;;;;5.05;4.43;;;;;;;;;;5054723;28;20025;-60
2023/01/15 02:34:12;;;;;;;5.32;4.50;;;;;;;;;;5054788;28;20091;-65
2023/01/15 02:36:43;;;;;;;6.13;4.35;;;;;;;;;;5054582;28;20120;-60
2023/01/15 02:39:12;;;;;;;6.63;4.70;;;;;;;;;;5054949;28;20098;-60
2023/01/15 02:41:43;;;;;;;5.55;4.68;;;;;;;;;;5054403;28;20029;-60
2023/01/15 02:44:11;;;;;;;4.85;4.35;;;;;;;;;;5054527;28;20029;-60
2023/01/15 02:46:40;;;;;;;6.28;4.60;;;;;;;;;;5054498;28;20448;-60
2023/01/15 02:49:08;;;;;;;5.20;4.38;;;;;;;;;;5054481;28;20021;-65
2023/01/15 02:51:47;;;;;;;5.93;4.72;;;;;;;;;;5054298;28;20215;-60
2023/01/15 02:54:16;;;;;;;4.78;4.20;;;;;;;;;;5054747;28;20414;-59
2023/01/15 02:56:44;;;;;;;5.47;4.13;;;;;;;;;;5054313;28;20025;-60
2023/01/15 02:59:16;;;;;;;6.18;4.88;;;;;;;;;;5054307;28;20021;-60
2023/01/15 03:01:46;;;;;;;4.88;4.25;;;;;;;;;;5037211;28;20025;-59
2023/01/15 03:04:19;;;;;;;5.15;4.38;;;;;;;;;;5053307;28;20056;-59
2023/01/15 03:06:51;;;;;;;6.13;4.63;;;;;;;;;;5054136;28;20195;-59
2023/01/15 03:09:17;;;;;;;5.80;4.50;;;;;;;;;;5054374;28;20032;-59
2023/01/15 03:11:48;;;;;;;5.15;4.28;;;;;;;;;;5054342;28;20029;-62
2023/01/15 03:14:17;;;;;;;5.72;4.50;;;;;;;;;;5053978;28;20029;-59
2023/01/15 03:16:49;;;;;;;5.68;4.68;;;;;;;;;;5054001;28;20419;-59
2023/01/15 03:19:45;;;;;;;5.15;4.53;;;;;;;;;;5053809;28;20053;-65
2023/01/15 03:22:27;;;;;;;6.60;4.82;;;;;;;;;;5054018;28;20047;-60
2023/01/15 03:25:18;;;;;;;5.60;4.20;;;;;;;;;;5053744;28;20029;-60
2023/01/15 03:27:43;;;;;;;5.55;4.65;;;;;;;;;;5053726;28;20025;-60
2023/01/15 03:30:15;;;;;;;5.95;4.50;;;;;;;;;;5053902;28;20032;-60
2023/01/15 03:32:40;;;;;;;6.30;4.63;;;;;;;;;;5053829;28;20025;-60
2023/01/15 03:35:27;;;;;;;5.68;4.50;;;;;;;;;;5053373;28;20503;-59
2023/01/15 03:37:53;;;;;;;5.50;4.00;;;;;;;;;;5053359;28;20541;-59
2023/01/15 03:40:20;;;;;;;5.82;4.20;;;;;;;;;;5053466;28;20116;-60
2023/01/15 03:45:53;;;;;;;4.90;4.40;;;;;;;;;;5053345;28;20174;-59
2023/01/15 03:48:35;;;;;;;4.90;4.38;;;;;;;;;;5053343;28;20032;-60
2023/01/15 03:51:11;;;;;;;4.57;4.18;;;;;;;;;;5053315;28;20055;-60
2023/01/15 03:53:44;;;;;;;5.55;4.43;;;;;;;;;;5053435;28;20021;-60
2023/01/15 03:56:31;;;;;;;6.03;4.38;;;;;;;;;;5053214;28;20485;-60
2023/01/15 03:59:08;;;;;;;4.95;4.22;;;;;;;;;;5053183;28;20579;-60
2023/01/15 04:01:40;;;;;;;6.70;4.45;;;;;;;;;;5053395;28;20047;-60
2023/01/15 04:04:06;;;;;;;5.90;4.72;;;;;;;;;;5053048;28;20056;-60
2023/01/15 04:06:35;;;;;;;5.30;4.00;;;;;;;;;;5052858;28;20052;-60
2023/01/15 04:09:07;;;;;;;7.18;4.32;;;;;;;;;;5053171;28;20028;-60
2023/01/15 04:11:32;;;;;;;5.30;4.63;;;;;;;;;;5053191;28;20032;-60
2023/01/15 04:13:58;;;;;;;4.90;4.30;;;;;;;;;;5052861;28;20385;-60
2023/01/15 04:16:29;;;;;;;5.45;4.40;;;;;;;;;;5052764;28;20075;-62
2023/01/15 04:18:54;;;;;;;5.43;4.30;;;;;;;;;;5052741;28;20039;-59
2023/01/15 04:21:20;;;;;;;5.60;4.47;;;;;;;;;;5052699;28;20024;-60
2023/01/15 04:23:46;;;;;;;4.55;4.10;;;;;;;;;;5052937;28;20071;-60
2023/01/15 04:26:12;;;;;;;6.35;4.50;;;;;;;;;;5052814;28;20044;-60
2023/01/15 04:28:38;;;;;;;4.63;3.95;;;;;;;;;;5052602;28;20501;-60
2023/01/15 04:31:04;;;;;;;5.43;4.18;;;;;;;;;;5052826;28;20108;-60
2023/01/15 04:33:30;;;;;;;5.10;4.22;;;;;;;;;;5052468;28;20377;-61
2023/01/15 04:35:59;;;;;;;4.70;4.28;;;;;;;;;;5052393;28;20120;-60
2023/01/15 04:38:24;;;;;;;5.05;4.50;;;;;;;;;;5052656;28;20039;-59
2023/01/15 04:46:21;;;;;;;5.30;4.55;;;;;;;;;;5052364;28;20040;-60
2023/01/15 04:48:46;;;;;;;5.10;4.60;;;;;;;;;;5052580;28;20017;-59
2023/01/15 04:51:12;;;;;;;4.30;3.90;;;;;;;;;;5052260;28;20032;-60
2023/01/15 04:53:38;;;;;;;4.97;4.05;;;;;;;;;;5052219;28;20025;-60
2023/01/15 04:56:04;;;;;;;5.80;4.40;;;;;;;;;;5052239;28;20088;-60
2023/01/15 04:58:30;;;;;;;5.38;4.40;;;;;;;;;;5052236;28;20033;-60
2023/01/15 05:00:59;;;;;;;5.75;4.57;;;;;;;;;;5052416;28;20028;-59
2023/01/15 05:03:25;;;;;;;4.75;4.10;;;;;;;;;;5052222;28;20477;-61
2023/01/15 05:05:51;;;;;;;5.22;4.35;;;;;;;;;;5034247;28;20129;-64
2023/01/15 05:08:16;;;;;;;5.53;4.35;;;;;;;;;;5052101;28;20451;-59
2023/01/15 05:10:42;;;;;;;5.57;4.28;;;;;;;;;;5052064;28;20071;-60
2023/01/15 05:13:08;;;;;;;4.95;3.97;;;;;;;;;;5051978;28;20021;-60
2023/01/15 05:15:33;;;;;;;6.00;4.43;;;;;;;;;;5052094;28;20259;-60
2023/01/15 05:17:59;;;;;;;6.30;4.68;;;;;;;;;;5052089;28;20044;-60
2023/01/15 05:20:24;;;;;;;5.15;4.25;;;;;;;;;;5051973;28;20025;-65
2023/01/15 05:22:50;;;;;;;5.55;4.53;;;;;;;;;;5051968;28;20029;-60
2023/01/15 05:25:16;;;;;;;5.57;4.40;;;;;;;;;;5052189;28;20044;-60
2023/01/15 05:27:41;;;;;;;5.40;4.38;;;;;;;;;;5052806;28;20052;-60
2023/01/15 05:30:07;;;;;;;6.07;4.55;;;;;;;;;;5055955;28;20021;-60
2023/01/15 05:32:33;;;;;;;4.97;4.20;;;;;;;;;;5055873;28;20163;-60
2023/01/15 05:34:58;;;;;;;5.25;4.20;;;;;;;;;;5055662;28;20524;-59
2023/01/15 05:37:24;;;;;;;6.13;4.45;;;;;;;;;;5055757;28;20029;-61
2023/01/15 05:39:49;;;;;;;4.38;3.97;;;;;;;;;;5055734;28;20025;-60
2023/01/15 05:42:15;;;;;;;5.47;4.28;;;;;;;;;;5055670;28;20055;-60
2023/01/15 05:44:41;;;;;;;4.93;4.43;;;;;;;;;;5055857;28;20040;-59
2023/01/15 05:47:06;;;;;;;5.72;4.32;;;;;;;;;;5055612;28;20100;-60
2023/01/15 05:49:32;;;;;;;6.15;4.63;;;;;;;;;;5055554;28;20025;-60
2023/01/15 05:52:00;;;;;;;4.57;4.13;;;;;;;;;;5055563;28;20028;-60
2023/01/15 05:54:28;;;;;;;4.82;4.30;;;;;;;;;;5055466;28;20032;-59
2023/01/15 05:56:54;;;;;;;4.90;4.30;;;;;;;;;;5055427;28;20264;-59
2023/01/15 05:59:22;;;;;;;5.35;4.28;;;;;;;;;;5055624;28;20063;-60
2023/01/15 06:01:48;;;;;;;5.07;4.32;;;;;;;;;;5055415;28;20032;-61
2023/01/15 06:04:14;;;;;;;5.00;4.40;;;;;;;;;;5055223;28;20021;-60
2023/01/15 06:06:41;;;;;;;5.65;4.53;;;;;;;;;;5055238;28;20081;-60
2023/01/15 06:09:06;;;;;;;4.85;4.00;;;;;;;;;;5055435;28;20035;-60
2023/01/15 06:11:32;;;;;;;5.55;4.20;;;;;;;;;;5055236;28;20452;-60
2023/01/15 06:13:58;;;;;;;5.80;4.45;;;;;;;;;;5055064;28;20040;-60
2023/01/15 06:16:24;;;;;;;4.75;4.25;;;;;;;;;;5055073;28;20048;-61
2023/01/15 06:18:50;;;;;;;5.32;4.40;;;;;;;;;;5055024;28;20029;-60
2023/01/15 06:21:16;;;;;;;7.60;4.45;;;;;;;;;;5055281;28;20025;-62
2023/01/15 06:23:42;;;;;;;4.90;3.90;;;;;;;;;;5055134;28;20029;-59
2023/01/15 06:26:11;;;;;;;5.65;4.40;;;;;;;;;;5054836;28;20032;-59
2023/01/15 06:28:37;;;;;;;5.20;4.43;;;;;;;;;;5055089;28;20039;-60
2023/01/15 06:31:11;;;;;;;4.43;3.90;;;;;;;;;;5054840;28;20376;-60
2023/01/15 06:33:37;;;;;;;5.72;4.65;;;;;;;;;;5054818;28;20024;-59
2023/01/15 06:36:11;;;;;;;4.40;3.88;;;;;;;;;;5054579;28;20044;-60
2023/01/15 06:38:38;;;;;;;4.78;4.22;;;;;;;;;;5054266;28;20025;-60
2023/01/15 06:47:19;;;;;;;5.03;4.30;;;;;;;;;;5054150;28;20057;-59
2023/01/15 06:49:20;;;;;;;5.03;4.30;;;;;;;;;;5054828;28;20028;-59
2023/01/15 06:51:45;;;;;;;4.68;4.00;;;;;;;;;;5054412;28;20072;-60
2023/01/15 06:54:11;;;;;;;5.22;4.43;;;;;;;;;;5054637;28;20091;-60
2023/01/15 06:56:36;;;;;;;4.60;4.15;;;;;;;;;;5054412;28;20395;-63
2023/01/15 06:59:02;;;;;;;5.13;4.20;;;;;;;;;;5036461;28;20024;-60
2023/01/15 07:01:29;;;;;;;4.72;4.15;;;;;;;;;;5054287;28;20021;-60
2023/01/15 07:03:55;;;;;;;4.57;4.07;;;;;;;;;;5054229;28;20032;-60
2023/01/15 07:06:21;;;;;;;4.90;4.35;;;;;;;;;;5054084;28;20033;-60
2023/01/15 07:08:47;;;;;;;4.88;4.35;;;;;;;;;;5054085;28;20047;-60
2023/01/15 07:11:13;;;;;;;5.75;4.30;;;;;;;;;;5036211;28;20029;-62
2023/01/15 07:13:38;;;;;;;4.95;4.25;;;;;;;;;;5054301;28;20055;-60
2023/01/15 07:16:04;;;;;;;5.07;4.47;;;;;;;;;;5053912;28;20149;-62
2023/01/15 07:18:31;;;;;;;5.00;4.30;;;;;;;;;;5053922;28;20097;-62
2023/01/15 07:20:57;;;;;;;5.13;4.10;;;;;;;;;;5054100;28;20047;-60
2023/01/15 07:23:24;;;;;;;4.95;4.28;;;;;;;;;;5054121;28;20036;-60
2023/01/15 07:25:54;;;;;;;5.57;4.25;;;;;;;;;;5053961;28;20033;-60
2023/01/15 07:28:21;;;;;;;5.45;4.25;;;;;;;;;;5053745;28;20116;-60
2023/01/15 07:30:47;;;;;;;4.93;4.43;;;;;;;;;;5053888;28;20029;-60
2023/01/15 07:33:12;;;;;;;4.82;4.18;;;;;;;;;;5053581;28;20558;-60
2023/01/15 07:35:38;;;;;;;5.20;4.20;;;;;;;;;;5053471;28;20037;-59
2023/01/15 07:38:03;;;;;;;5.38;4.28;;;;;;;;;;5053554;28;20025;-60
2023/01/15 07:40:29;;;;;;;6.13;4.60;;;;;;;;;;5053515;28;20032;-60
2023/01/15 07:51:09;;;;;;;5.43;4.28;;;;;;;;;;5053308;28;20083;-61
2023/01/15 07:53:35;;;;;;;5.70;4.18;;;;;;;;;;5053310;28;20025;-64
2023/01/15 07:56:00;;;;;;;5.68;4.18;;;;;;;;;;5053175;28;20529;-60
2023/01/15 07:58:26;;;;;;;4.65;4.05;;;;;;;;;;5053193;28;20028;-60
2023/01/15 08:00:51;;;;;;;5.00;4.25;;;;;;;;;;5053137;28;20096;-60
2023/01/15 08:03:17;;;;;;;5.43;4.47;;;;;;;;;;5053043;28;20103;-59
2023/01/15 08:05:43;;;;;;;5.28;4.10;;;;;;;;;;5053156;28;20032;-60
2023/01/15 08:08:16;;;;;;;6.78;4.22;;;;;;;;;;5052977;28;20468;-60
2023/01/15 08:15:11;;;;;;;5.55;4.47;;;;;;;;;;5052884;28;20488;-60
2023/01/15 08:16:14;;;;;;;5.70;4.32;;;;;;;;;;5052996;28;20032;-60
2023/01/15 08:18:40;;;;;;;5.07;3.83;;;;;;;;;;5053069;28;20029;-60
2023/01/15 08:21:05;;;;;;;5.00;4.50;;;;;;;;;;5052800;28;20031;-64
2023/01/15 08:23:31;;;;;;;4.85;4.25;;;;;;;;;;5052652;28;20029;-60
2023/01/15 08:26:00;;;;;;;5.18;4.25;;;;;;;;;;5034782;28;20468;-60
2023/01/15 08:28:26;;;;;;;5.15;4.38;;;;;;;;;;5051340;28;20374;-61
2023/01/15 08:30:52;;;;;;;5.28;4.07;;;;;;;;;;5052603;28;20060;-60
2023/01/15 08:33:18;;;;;;;5.50;4.28;;;;;;;;;;5052460;28;20057;-60
2023/01/15 08:35:43;;;;;;;5.00;4.50;;;;;;;;;;5052288;28;20064;-61
2023/01/15 08:38:09;;;;;;;4.88;4.38;;;;;;;;;;5052341;28;20028;-62
2023/01/15 08:40:57;;;;;;;4.68;4.18;;;;;;;;;;5052298;28;20040;-61
2023/01/15 08:43:21;;;;;;;4.93;3.83;;;;;;;;;;5052208;28;20082;-63
2023/01/15 08:45:46;;;;;;;6.07;4.25;;;;;;;;;;5052116;28;20029;-66
2023/01/15 08:48:12;;;;;;;4.25;3.85;;;;;;;;;;5052166;28;20104;-60
2023/01/15 08:50:38;;;;;;;5.97;4.18;;;;;;;;;;5052591;28;20029;-61
2023/01/15 08:53:03;;;;;;;4.85;4.35;;;;;;;;;;5052282;28;20127;-62
2023/01/15 08:55:29;;;;;;;5.25;4.50;;;;;;;;;;5052193;28;20056;-60
2023/01/15 08:57:54;;;;;;;5.60;4.38;;;;;;;;;;5067016;28;20044;-61
2023/01/15 09:00:20;;;;;;;5.57;4.55;;;;;;;;;;5071002;28;20384;-60
2023/01/15 09:02:46;;;;;;;5.13;4.45;;;;;;;;;;5070023;28;20070;-61
2023/01/15 09:05:11;;;;;;;6.10;4.10;;;;;;;;;;5070823;28;20047;-61
2023/01/15 09:07:37;;;;;;;6.43;4.63;;;;;;;;;;5071041;28;20020;-60
2023/01/15 09:10:03;;;;;;;4.90;4.25;;;;;;;;;;5068643;28;20021;-65
2023/01/15 09:12:29;;;;;;;5.90;4.78;;;;;;;;;;5063916;28;20400;-60
2023/01/15 09:14:55;;;;;;;4.90;4.38;;;;;;;;;;5063567;28;20024;-61
2023/01/15 09:17:20;;;;;;;5.50;4.60;;;;;;;;;;5063475;28;20035;-60
2023/01/15 09:19:46;;;;;;;6.20;4.60;;;;;;;;;;5062787;28;20078;-60
2023/01/15 09:22:12;;;;;;;4.72;4.20;;;;;;;;;;5062118;28;20024;-61
2023/01/15 09:24:37;;;;;;;7.68;4.93;;;;;;;;;;5058574;28;20079;-60
2023/01/15 09:27:03;;;;;;;5.72;4.55;;;;;;;;;;5048408;28;20052;-60
2023/01/15 09:29:28;;;;;;;5.85;4.50;;;;;;;;;;5067439;28;20089;-61
2023/01/15 09:31:54;;;;;;;6.28;4.28;;;;;;;;;;5062414;28;20028;-61
2023/01/15 09:34:20;;;;;;;5.25;4.70;;;;;;;;;;5060682;28;20424;-61
2023/01/15 09:36:46;;;;;;;5.78;4.32;;;;;;;;;;5063009;28;20100;-61
2023/01/15 09:39:11;;;;;;;6.35;4.63;;;;;;;;;;5071819;28;20107;-59
2023/01/15 09:42:06;;;;;;;5.93;4.55;;;;;;;;;;5071747;28;20078;-61
2023/01/15 09:44:44;;;;;;;6.40;5.13;;;;;;;;;;5071762;28;20032;-61
2023/01/15 09:47:25;;;;;;;6.35;4.75;;;;;;;;;;5072063;28;20024;-61
2023/01/15 09:50:11;;;;;;;6.05;4.65;;;;;;;;;;5071799;28;20095;-61
2023/01/15 09:53:12;;;;;;;7.88;5.20;;;;;;;;;;5071707;28;20107;-61
2023/01/15 09:55:52;;;;;;;6.25;4.63;;;;;;;;;;5071572;28;20388;-61
2023/01/15 09:58:21;;;;;;;6.63;5.07;;;;;;;;;;5065663;28;20046;-62
2023/01/15 10:00:49;;;;;;;6.30;4.80;;;;;;;;;;5071499;28;20086;-61
2023/01/15 10:03:22;;;;;;;5.82;4.72;;;;;;;;;;5071589;28;20033;-62
2023/01/15 10:06:16;;;;;;;6.03;4.40;;;;;;;;;;5071717;28;20123;-62
2023/01/15 10:08:45;;;;;;;5.53;4.80;;;;;;;;;;5071746;28;20029;-62
2023/01/15 10:11:13;;;;;;;6.95;4.78;;;;;;;;;;5071713;28;20384;-61
2023/01/15 10:13:55;;;;;;;6.50;4.72;;;;;;;;;;5072320;28;20477;-60
2023/01/15 10:16:26;;;;;;;5.53;4.38;;;;;;;;;;5067864;28;20028;-61
2023/01/15 10:18:53;;;;;;;6.85;4.53;;;;;;;;;;5070036;28;20063;-61
2023/01/15 10:21:41;;;;;;;7.25;5.03;;;;;;;;;;5068531;28;20439;-62
2023/01/15 10:24:34;;;;;;;6.40;4.95;;;;;;;;;;5065843;28;20032;-62
2023/01/15 10:27:22;;;;;;;10.60;6.25;;;;;;;;;;5065373;28;20498;-62
2023/01/15 10:30:15;;;;;;;7.03;5.70;;;;;;;;;;5067767;28;20472;-63
2023/01/15 10:32:51;;;;;;;7.05;4.75;;;;;;;;;;5074768;28;20100;-61
2023/01/15 10:35:33;;;;;;;10.48;6.32;;;;;;;;;;5067595;28;20044;-61
2023/01/15 10:38:08;;;;;;;8.80;5.95;;;;;;;;;;5064455;28;20107;-61
2023/01/15 10:40:55;;;;;;;8.85;5.63;;;;;;;;;;5065095;28;20017;-61
2023/01/15 10:43:52;;;;;;;13.60;7.18;;;;;;;;;;5064355;28;20032;-65
2023/01/15 10:46:26;;;;;;;10.18;6.57;;;;;;;;;;5064142;28;20112;-66
2023/01/15 10:48:56;;;;;;;7.47;5.00;;;;;;;;;;5064708;28;20024;-62
2023/01/15 10:51:29;;;;;;;8.10;6.13;;;;;;;;;;5064444;28;20025;-63
2023/01/15 10:54:00;;;;;;;8.73;5.53;;;;;;;;;;5064656;28;20033;-62
2023/01/15 10:57:00;;;;;;;8.40;5.72;;;;;;;;;;5064536;28;20021;-61
2023/01/15 10:59:46;;;;;;;9.00;5.82;;;;;;;;;;5065099;28;20423;-61
2023/01/15 11:02:22;;;;;;;8.00;5.63;;;;;;;;;;5065762;28;20062;-61
2023/01/15 11:04:48;;;;;;;8.45;5.53;;;;;;;;;;5065744;28;20031;-61
2023/01/15 11:07:15;;;;;;;8.68;5.00;;;;;;;;;;5064161;28;20020;-61
2023/01/15 11:09:41;;;;;;;7.20;5.57;;;;;;;;;;5065224;28;20032;-62
2023/01/15 11:20:24;;;;;;;;;;;;;;;;;;5074760;28;20127;-62
2023/01/15 11:22:50;;;;;;;6.70;5.38;;;;;;;;;;5073812;28;19939;-58
2023/01/15 11:25:28;;;;;;;8.23;5.93;;;;;;;;;;5071579;28;20028;-59
2023/01/15 11:27:54;;;;;;;7.30;5.32;;;;;;;;;;5073751;28;20020;-58
2023/01/15 11:30:38;;;;;;;6.47;5.25;;;;;;;;;;5073771;28;20499;-59
2023/01/15 11:33:19;;;;;;;8.63;5.63;;;;;;;;;;5073589;28;20043;-60
2023/01/15 11:35:57;;;;;;;7.75;5.85;;;;;;;;;;5067424;28;20056;-60
2023/01/15 11:38:44;;;;;;;7.57;5.63;;;;;;;;;;5073718;28;20074;-58
2023/01/15 11:41:18;;;;;;;8.48;5.30;;;;;;;;;;5072832;28;20032;-59
2023/01/15 11:52:14;;;;;;;10.48;5.50;;;;;;;;;;5073551;28;20446;-59
2023/01/15 11:54:44;;;;;;;8.27;5.00;;;;;;;;;;5073188;28;20032;-59
2023/01/15 11:57:10;;;;;;;6.85;5.22;;;;;;;;;;5073085;28;20020;-59
2023/01/15 11:59:36;;;;;;;7.20;4.85;;;;;;;;;;5073450;28;20388;-59
2023/01/15 12:02:15;;;;;;;7.03;5.32;;;;;;;;;;5073026;28;20031;-59
2023/01/15 12:04:57;;;;;;;7.43;5.60;;;;;;;;;;5072931;28;20538;-61
2023/01/15 12:07:25;;;;;;;7.45;5.53;;;;;;;;;;5072881;28;20111;-58
2023/01/15 12:10:06;;;;;;;7.25;5.40;;;;;;;;;;5072243;28;20024;-59
2023/01/15 12:12:47;;;;;;;7.60;5.40;;;;;;;;;;5071734;28;20028;-60
2023/01/15 12:15:21;;;;;;;6.68;5.28;;;;;;;;;;5070572;28;20029;-60
2023/01/15 12:18:05;;;;;;;7.13;5.65;;;;;;;;;;5070787;28;20034;-60
2023/01/15 12:20:55;;;;;;;7.68;5.38;;;;;;;;;;5070934;28;20021;-60
2023/01/15 12:23:39;;;;;;;;;;;;;;;;;;5071925;28;20399;-60
2023/01/15 12:26:16;;;;;;;6.85;5.35;;;;;;;;;;5071511;28;19916;-59
2023/01/15 12:29:05;;;;;;;11.38;5.57;;;;;;;;;;5071533;28;20028;-59
2023/01/15 12:31:37;;;;;;;6.95;5.13;;;;;;;;;;5072433;28;20040;-59
2023/01/15 12:34:15;;;;;;;7.00;5.68;;;;;;;;;;5072387;28;20032;-60
2023/01/15 12:37:14;;;;;;;7.18;5.32;;;;;;;;;;5072135;28;20538;-59
2023/01/15 12:39:55;;;;;;;8.00;5.72;;;;;;;;;;5019962;28;20443;-60
2023/01/15 12:45:29;;;;;;;6.78;5.22;;;;;;;;;;5072562;28;20472;-60
2023/01/15 12:48:10;;;;;;;7.25;5.10;;;;;;;;;;5072383;28;20024;-60
2023/01/15 12:50:44;;;;;;;8.85;5.63;;;;;;;;;;5072345;28;20082;-59
2023/01/15 12:53:24;;;;;;;7.05;5.45;;;;;;;;;;5072325;28;20028;-60
2023/01/15 12:56:13;;;;;;;;;;;;;;;;;;5054792;28;20109;-60
2023/01/15 12:59:03;;;;;;;7.57;5.50;;;;;;;;;;5064047;28;19916;-59
2023/01/15 13:01:56;;;;;;;6.70;5.55;;;;;;;;;;5072261;28;20032;-59
2023/01/15 13:04:30;;;;;;;7.18;5.32;;;;;;;;;;5072270;28;20040;-59
2023/01/15 13:07:12;;;;;;;6.20;5.20;;;;;;;;;;5072144;28;20043;-59
2023/01/15 13:09:44;;;;;;;6.70;5.28;;;;;;;;;;5072157;28;20033;-59
2023/01/15 13:12:14;;;;;;;7.07;5.80;;;;;;;;;;5072239;28;20025;-59
2023/01/15 13:14:41;;;;;;;7.05;5.50;;;;;;;;;;5072300;28;20024;-59
2023/01/15 13:17:31;;;;;;;7.53;5.45;;;;;;;;;;5072168;28;20146;-60
2023/01/15 13:20:11;;;;;;;7.65;5.28;;;;;;;;;;5072115;28;20035;-60
2023/01/15 13:22:51;;;;;;;8.02;5.90;;;;;;;;;;5072089;28;20024;-60
2023/01/15 13:25:49;;;;;;;8.38;5.45;;;;;;;;;;5072308;28;20050;-58
2023/01/15 13:28:24;;;;;;;6.72;5.50;;;;;;;;;;5071937;28;20045;-59
2023/01/15 13:31:27;;;;;;;6.25;5.30;;;;;;;;;;5072298;28;20024;-59
2023/01/15 13:33:55;;;;;;;7.20;5.53;;;;;;;;;;5071791;28;20514;-60
2023/01/15 13:36:31;;;;;;;6.93;5.40;;;;;;;;;;5071593;28;20404;-59
2023/01/15 13:39:02;;;;;;;6.55;5.35;;;;;;;;;;5071949;28;20107;-59
2023/01/15 13:44:20;;;;;;;6.80;5.38;;;;;;;;;;5071903;28;20442;-59
2023/01/15 13:46:58;;;;;;;10.65;5.60;;;;;;;;;;5071738;28;20433;-59
2023/01/15 13:49:31;;;;;;;7.65;5.57;;;;;;;;;;5073726;28;20031;-59
2023/01/15 13:52:03;;;;;;;7.60;5.07;;;;;;;;;;5075557;28;20218;-60
2023/01/15 13:54:30;;;;;;;6.85;5.25;;;;;;;;;;5074563;28;20025;-60
2023/01/15 13:57:20;;;;;;;7.18;5.47;;;;;;;;;;5075408;28;20020;-59
2023/01/15 13:59:48;;;;;;;6.78;5.07;;;;;;;;;;5075177;28;20027;-59
2023/01/15 14:02:37;;;;;;;6.25;5.28;;;;;;;;;;5075228;28;20023;-59
2023/01/15 14:05:33;;;;;;;6.65;5.25;;;;;;;;;;5074988;28;20028;-59
2023/01/15 14:08:00;;;;;;;7.07;5.57;;;;;;;;;;5060776;28;20472;-59
2023/01/15 14:10:35;;;;;;;8.25;5.47;;;;;;;;;;5073692;28;20031;-60
2023/01/15 14:13:01;;;;;;;6.90;5.55;;;;;;;;;;5073596;28;20032;-59
2023/01/15 14:15:53;;;;;;;7.20;5.63;;;;;;;;;;5073619;28;20035;-59
2023/01/15 14:18:25;;;;;;;8.30;5.85;;;;;;;;;;5073461;28;20116;-59
2023/01/15 14:20:56;;;;;;;6.05;5.30;;;;;;;;;;5073626;28;20032;-59
2023/01/15 14:23:25;;;;;;;7.05;5.50;;;;;;;;;;5073509;28;20499;-59
2023/01/15 14:25:54;;;;;;;6.03;5.10;;;;;;;;;;5073223;28;20041;-58
2023/01/15 14:28:41;;;;;;;7.38;5.40;;;;;;;;;;5073161;28;20098;-60
2023/01/15 14:31:09;;;;;;;6.25;5.18;;;;;;;;;;5073288;28;20090;-60
2023/01/15 14:34:04;;;;;;;6.97;5.75;;;;;;;;;;5073033;28;20090;-59
2023/01/15 14:36:37;;;;;;;7.03;5.45;;;;;;;;;;5074536;28;20036;-59
2023/01/15 14:39:18;;;;;;;7.15;5.50;;;;;;;;;;5074434;28;20099;-59
2023/01/15 14:44:31;;;;;;;7.22;5.85;;;;;;;;;;5073534;28;20039;-60
2023/01/15 14:47:05;;;;;;;6.43;5.55;;;;;;;;;;5072513;28;20029;-59
2023/01/15 14:49:44;;;;;;;7.60;5.70;;;;;;;;;;5072701;28;20024;-59
2023/01/15 14:52:10;;;;;;;7.82;6.10;;;;;;;;;;5072633;28;20027;-60
2023/01/15 14:54:38;;;;;;;7.18;5.70;;;;;;;;;;5072760;28;20020;-59
2023/01/15 14:57:07;;;;;;;9.85;6.55;;;;;;;;;;5072635;28;20048;-59
2023/01/15 14:59:51;;;;;;;7.93;5.75;;;;;;;;;;5073743;28;20102;-60
2023/01/15 15:02:30;;;;;;;7.78;5.85;;;;;;;;;;5073771;28;20472;-59
2023/01/15 15:04:58;;;;;;;6.68;5.22;;;;;;;;;;5074117;28;20147;-58
2023/01/15 15:07:27;;;;;;;9.82;6.38;;;;;;;;;;5074138;28;20035;-58
2023/01/15 15:10:10;;;;;;;8.02;6.40;;;;;;;;;;5074069;28;20035;-59
2023/01/15 15:13:03;;;;;;;8.93;6.38;;;;;;;;;;5074113;28;20032;-57
2023/01/15 15:15:29;;;;;;;8.30;6.35;;;;;;;;;;5073925;28;20023;-59
2023/01/15 15:18:02;;;;;;;8.45;5.55;;;;;;;;;;5073963;28;20024;-59
2023/01/15 15:20:50;;;;;;;9.60;6.45;;;;;;;;;;5073949;28;20024;-59
2023/01/15 15:23:38;;;;;;;9.52;6.55;;;;;;;;;;5073788;28;20021;-62
2023/01/15 15:26:16;;;;;;;8.82;6.28;;;;;;;;;;5073790;28;20166;-59
2023/01/15 15:28:41;;;;;;;7.95;6.60;;;;;;;;;;5073696;28;20052;-60
2023/01/15 15:31:08;;;;;;;7.85;6.20;;;;;;;;;;5073741;28;20056;-59
2023/01/15 15:33:40;;;;;;;7.53;5.88;;;;;;;;;;5073597;28;20085;-59
2023/01/15 15:36:06;;;;;;;7.55;6.10;;;;;;;;;;5055475;28;20291;-59
2023/01/15 15:38:32;;;;;;;8.02;6.30;;;;;;;;;;5073492;28;20031;-60
2023/01/15 15:41:06;;;;;;;8.90;6.50;;;;;;;;;;5073896;28;20021;-58
2023/01/15 15:49:40;;;;;;;8.55;6.35;;;;;;;;;;5073670;28;20044;-59
2023/01/15 15:52:22;;;;;;;8.95;6.78;;;;;;;;;;5073126;28;20062;-59
2023/01/15 15:55:04;;;;;;;7.60;5.90;;;;;;;;;;5073313;28;20025;-60
2023/01/15 15:57:32;;;;;;;7.50;6.20;;;;;;;;;;5074613;28;20108;-60
2023/01/15 15:59:59;;;;;;;9.15;6.80;;;;;;;;;;5073054;28;20104;-59
2023/01/15 16:02:37;;;;;;;8.23;6.28;;;;;;;;;;5073100;28;20032;-58
2023/01/15 16:05:22;;;;;;;8.27;6.45;;;;;;;;;;5072940;28;20037;-59
2023/01/15 16:07:48;;;;;;;9.20;6.32;;;;;;;;;;5073015;28;20511;-59
2023/01/15 16:10:18;;;;;;;8.90;6.68;;;;;;;;;;5072930;28;20052;-58
2023/01/15 16:12:51;;;;;;;9.15;6.55;;;;;;;;;;5072648;28;20025;-59